sensor_id;sensor_type;location;lat;lon;timestamp;temperature;humidity
53152;DHT22;39234;53.158;6.322;2022-10-23T00:02:25;9.40;99.90
53152;DHT22;39234;53.158;6.322;2022-10-23T00:04:51;9.50;99.90
53152;DHT22;39234;53.158;6.322;2022-10-23T00:07:17;11.30;99.90
53152;DHT22;39234;53.158;6.322;2022-10-23T00:09:43;10.80;99.90
53152;DHT22;39234;53.158;6.322;2022-10-23T00:12:09;9.40;99.90
53152;DHT22;39234;53.158;6.322;2022-10-23T00:14:35;9.50;99.90
53152;DHT22;39234;53.158;6.322;2022-10-23T00:17:00;9.60;99.90
53152;DHT22;39234;53.158;6.322;2022-10-23T00:19:26;9.70;99.90
53152;DHT22;39234;53.158;6.322;2022-10-23T00:21:51;10.70;99.90
53152;DHT22;39234;53.158;6.322;2022-10-23T00:24:17;9.60;99.90
53152;DHT22;39234;53.158;6.322;2022-10-23T00:26:43;10.00;99.90
53152;DHT22;39234;53.158;6.322;2022-10-23T00:29:10;9.60;99.90
53152;DHT22;39234;53.158;6.322;2022-10-23T00:31:36;9.60;99.90
53152;DHT22;39234;53.158;6.322;2022-10-23T00:34:02;9.50;99.90
53152;DHT22;39234;53.158;6.322;2022-10-23T00:36:32;9.50;99.90
53152;DHT22;39234;53.158;6.322;2022-10-23T00:38:58;10.60;99.90
53152;DHT22;39234;53.158;6.322;2022-10-23T00:41:27;10.50;99.90
53152;DHT22;39234;53.158;6.322;2022-10-23T00:44:09;9.40;99.90
53152;DHT22;39234;53.158;6.322;2022-10-23T00:46:54;9.70;99.90
53152;DHT22;39234;53.158;6.322;2022-10-23T00:49:21;11.10;99.90
53152;DHT22;39234;53.158;6.322;2022-10-23T00:51:56;9.60;99.90
53152;DHT22;39234;53.158;6.322;2022-10-23T00:54:24;9.60;99.90
53152;DHT22;39234;53.158;6.322;2022-10-23T00:56:53;9.40;99.90
53152;DHT22;39234;53.158;6.322;2022-10-23T00:59:20;10.00;99.90
53152;DHT22;39234;53.158;6.322;2022-10-23T01:01:46;9.50;99.90
53152;DHT22;39234;53.158;6.322;2022-10-23T01:04:12;11.20;99.90
53152;DHT22;39234;53.158;6.322;2022-10-23T01:09:28;10.40;99.90
53152;DHT22;39234;53.158;6.322;2022-10-23T01:17:27;9.50;99.90
53152;DHT22;39234;53.158;6.322;2022-10-23T01:27:47;10.50;99.90
53152;DHT22;39234;53.158;6.322;2022-10-23T01:30:16;9.50;99.90
53152;DHT22;39234;53.158;6.322;2022-10-23T01:32:48;9.60;99.90
53152;DHT22;39234;53.158;6.322;2022-10-23T01:35:23;9.60;99.90
53152;DHT22;39234;53.158;6.322;2022-10-23T01:38:05;9.80;99.90
53152;DHT22;39234;53.158;6.322;2022-10-23T01:43:12;9.80;99.90
53152;DHT22;39234;53.158;6.322;2022-10-23T01:45:50;10.00;99.90
53152;DHT22;39234;53.158;6.322;2022-10-23T01:48:22;9.70;99.90
53152;DHT22;39234;53.158;6.322;2022-10-23T01:50:50;9.40;99.90
53152;DHT22;39234;53.158;6.322;2022-10-23T01:53:18;9.70;99.90
53152;DHT22;39234;53.158;6.322;2022-10-23T01:55:45;9.50;99.90
53152;DHT22;39234;53.158;6.322;2022-10-23T01:58:12;11.10;99.90
53152;DHT22;39234;53.158;6.322;2022-10-23T02:00:39;9.70;99.90
53152;DHT22;39234;53.158;6.322;2022-10-23T02:03:07;11.60;99.90
53152;DHT22;39234;53.158;6.322;2022-10-23T02:05:33;9.90;99.90
53152;DHT22;39234;53.158;6.322;2022-10-23T02:08:00;9.90;99.90
53152;DHT22;39234;53.158;6.322;2022-10-23T02:10:51;9.70;99.90
53152;DHT22;39234;53.158;6.322;2022-10-23T02:13:48;10.70;99.90
53152;DHT22;39234;53.158;6.322;2022-10-23T02:16:26;9.70;99.90
53152;DHT22;39234;53.158;6.322;2022-10-23T02:19:05;9.90;99.90
53152;DHT22;39234;53.158;6.322;2022-10-23T02:21:58;9.80;99.90
53152;DHT22;39234;53.158;6.322;2022-10-23T02:24:35;9.80;99.90
53152;DHT22;39234;53.158;6.322;2022-10-23T02:27:16;10.20;99.90
53152;DHT22;39234;53.158;6.322;2022-10-23T02:29:47;9.70;99.90
53152;DHT22;39234;53.158;6.322;2022-10-23T02:32:14;9.50;99.90
53152;DHT22;39234;53.158;6.322;2022-10-23T02:34:41;9.80;99.90
53152;DHT22;39234;53.158;6.322;2022-10-23T02:37:07;9.50;99.90
53152;DHT22;39234;53.158;6.322;2022-10-23T02:39:33;11.70;99.90
53152;DHT22;39234;53.158;6.322;2022-10-23T02:47:34;9.60;99.90
53152;DHT22;39234;53.158;6.322;2022-10-23T03:01:06;11.60;99.90
53152;DHT22;39234;53.158;6.322;2022-10-23T03:03:37;9.60;99.90
53152;DHT22;39234;53.158;6.322;2022-10-23T03:06:04;9.60;99.90
53152;DHT22;39234;53.158;6.322;2022-10-23T03:08:43;9.70;99.90
53152;DHT22;39234;53.158;6.322;2022-10-23T03:11:10;9.80;99.90
53152;DHT22;39234;53.158;6.322;2022-10-23T03:13:35;9.70;99.90
53152;DHT22;39234;53.158;6.322;2022-10-23T03:16:01;11.40;99.90
53152;DHT22;39234;53.158;6.322;2022-10-23T03:18:27;9.80;99.90
53152;DHT22;39234;53.158;6.322;2022-10-23T03:20:52;9.60;99.90
53152;DHT22;39234;53.158;6.322;2022-10-23T03:23:18;10.30;99.90
53152;DHT22;39234;53.158;6.322;2022-10-23T03:25:44;9.50;99.90
53152;DHT22;39234;53.158;6.322;2022-10-23T03:28:10;9.60;99.90
53152;DHT22;39234;53.158;6.322;2022-10-23T03:30:35;9.80;99.90
53152;DHT22;39234;53.158;6.322;2022-10-23T03:33:01;10.10;99.90
53152;DHT22;39234;53.158;6.322;2022-10-23T03:35:27;9.60;99.90
53152;DHT22;39234;53.158;6.322;2022-10-23T03:37:52;9.80;99.90
53152;DHT22;39234;53.158;6.322;2022-10-23T03:40:18;9.60;99.90
53152;DHT22;39234;53.158;6.322;2022-10-23T03:42:44;9.90;99.90
53152;DHT22;39234;53.158;6.322;2022-10-23T03:45:09;9.60;99.90
53152;DHT22;39234;53.158;6.322;2022-10-23T03:47:35;9.70;99.90
53152;DHT22;39234;53.158;6.322;2022-10-23T03:50:06;12.00;99.90
53152;DHT22;39234;53.158;6.322;2022-10-23T03:52:32;9.60;99.90
53152;DHT22;39234;53.158;6.322;2022-10-23T03:54:58;9.60;99.90
53152;DHT22;39234;53.158;6.322;2022-10-23T03:57:23;10.40;99.90
53152;DHT22;39234;53.158;6.322;2022-10-23T03:59:49;11.90;99.90
53152;DHT22;39234;53.158;6.322;2022-10-23T04:02:15;9.70;99.90
53152;DHT22;39234;53.158;6.322;2022-10-23T04:04:41;9.80;99.90
53152;DHT22;39234;53.158;6.322;2022-10-23T04:07:06;9.80;99.90
53152;DHT22;39234;53.158;6.322;2022-10-23T04:09:32;9.60;99.90
53152;DHT22;39234;53.158;6.322;2022-10-23T04:11:58;12.00;99.90
53152;DHT22;39234;53.158;6.322;2022-10-23T04:14:24;9.80;99.90
53152;DHT22;39234;53.158;6.322;2022-10-23T04:16:50;9.70;99.90
53152;DHT22;39234;53.158;6.322;2022-10-23T04:19:16;10.30;99.90
53152;DHT22;39234;53.158;6.322;2022-10-23T04:21:42;9.70;99.90
53152;DHT22;39234;53.158;6.322;2022-10-23T04:24:08;9.70;99.90
53152;DHT22;39234;53.158;6.322;2022-10-23T04:26:34;10.40;99.90
53152;DHT22;39234;53.158;6.322;2022-10-23T04:28:59;9.90;99.90
53152;DHT22;39234;53.158;6.322;2022-10-23T04:31:25;9.80;99.90
53152;DHT22;39234;53.158;6.322;2022-10-23T04:33:51;10.90;99.90
53152;DHT22;39234;53.158;6.322;2022-10-23T04:36:17;10.70;99.90
53152;DHT22;39234;53.158;6.322;2022-10-23T04:38:42;10.20;99.90
53152;DHT22;39234;53.158;6.322;2022-10-23T04:41:08;9.70;99.90
53152;DHT22;39234;53.158;6.322;2022-10-23T04:43:34;9.90;99.90
53152;DHT22;39234;53.158;6.322;2022-10-23T04:46:00;9.80;99.90
53152;DHT22;39234;53.158;6.322;2022-10-23T04:48:26;10.90;99.90
53152;DHT22;39234;53.158;6.322;2022-10-23T04:50:59;9.40;99.90
53152;DHT22;39234;53.158;6.322;2022-10-23T04:53:26;9.40;99.90
53152;DHT22;39234;53.158;6.322;2022-10-23T04:55:54;10.00;99.90
53152;DHT22;39234;53.158;6.322;2022-10-23T04:58:20;9.60;99.90
53152;DHT22;39234;53.158;6.322;2022-10-23T05:00:47;9.30;99.90
53152;DHT22;39234;53.158;6.322;2022-10-23T05:03:13;10.90;99.90
53152;DHT22;39234;53.158;6.322;2022-10-23T05:05:39;11.00;99.90
53152;DHT22;39234;53.158;6.322;2022-10-23T05:08:05;9.60;99.90
53152;DHT22;39234;53.158;6.322;2022-10-23T05:10:30;11.70;99.90
53152;DHT22;39234;53.158;6.322;2022-10-23T05:12:56;9.50;99.90
53152;DHT22;39234;53.158;6.322;2022-10-23T05:15:22;9.60;99.90
53152;DHT22;39234;53.158;6.322;2022-10-23T05:17:49;9.90;99.90
53152;DHT22;39234;53.158;6.322;2022-10-23T05:20:21;11.10;99.90
53152;DHT22;39234;53.158;6.322;2022-10-23T05:22:51;10.80;99.90
53152;DHT22;39234;53.158;6.322;2022-10-23T05:25:18;9.70;99.90
53152;DHT22;39234;53.158;6.322;2022-10-23T05:27:44;11.10;99.90
53152;DHT22;39234;53.158;6.322;2022-10-23T05:30:11;10.60;99.90
53152;DHT22;39234;53.158;6.322;2022-10-23T05:32:37;9.50;99.90
53152;DHT22;39234;53.158;6.322;2022-10-23T05:35:07;9.50;99.90
53152;DHT22;39234;53.158;6.322;2022-10-23T05:37:35;9.60;99.90
53152;DHT22;39234;53.158;6.322;2022-10-23T05:40:02;9.80;99.90
53152;DHT22;39234;53.158;6.322;2022-10-23T05:42:27;9.70;99.90
53152;DHT22;39234;53.158;6.322;2022-10-23T05:44:53;11.10;99.90
53152;DHT22;39234;53.158;6.322;2022-10-23T05:47:19;9.90;99.90
53152;DHT22;39234;53.158;6.322;2022-10-23T05:49:44;10.40;99.90
53152;DHT22;39234;53.158;6.322;2022-10-23T05:52:11;11.30;99.90
53152;DHT22;39234;53.158;6.322;2022-10-23T05:54:37;10.40;99.90
53152;DHT22;39234;53.158;6.322;2022-10-23T05:57:02;9.80;99.90
53152;DHT22;39234;53.158;6.322;2022-10-23T05:59:28;10.30;99.90
53152;DHT22;39234;53.158;6.322;2022-10-23T06:01:55;9.80;99.90
53152;DHT22;39234;53.158;6.322;2022-10-23T06:04:20;9.80;99.90
53152;DHT22;39234;53.158;6.322;2022-10-23T06:06:46;10.50;99.90
53152;DHT22;39234;53.158;6.322;2022-10-23T06:09:13;11.50;99.90
53152;DHT22;39234;53.158;6.322;2022-10-23T06:11:39;9.80;99.90
53152;DHT22;39234;53.158;6.322;2022-10-23T06:14:06;10.30;99.90
53152;DHT22;39234;53.158;6.322;2022-10-23T06:16:31;10.10;99.90
53152;DHT22;39234;53.158;6.322;2022-10-23T06:18:57;9.70;99.90
53152;DHT22;39234;53.158;6.322;2022-10-23T06:21:24;10.20;99.90
53152;DHT22;39234;53.158;6.322;2022-10-23T06:23:50;9.90;99.90
53152;DHT22;39234;53.158;6.322;2022-10-23T06:26:17;11.20;99.90
53152;DHT22;39234;53.158;6.322;2022-10-23T06:28:44;11.30;99.90
53152;DHT22;39234;53.158;6.322;2022-10-23T06:31:12;11.10;99.90
53152;DHT22;39234;53.158;6.322;2022-10-23T06:33:38;9.90;99.90
53152;DHT22;39234;53.158;6.322;2022-10-23T06:36:04;10.00;99.90
53152;DHT22;39234;53.158;6.322;2022-10-23T06:38:31;10.00;99.90
53152;DHT22;39234;53.158;6.322;2022-10-23T06:41:03;10.00;99.90
53152;DHT22;39234;53.158;6.322;2022-10-23T06:43:29;10.00;99.90
53152;DHT22;39234;53.158;6.322;2022-10-23T06:45:54;10.00;99.90
53152;DHT22;39234;53.158;6.322;2022-10-23T06:48:20;11.50;99.90
53152;DHT22;39234;53.158;6.322;2022-10-23T06:50:46;10.10;99.90
53152;DHT22;39234;53.158;6.322;2022-10-23T06:53:11;10.80;99.90
53152;DHT22;39234;53.158;6.322;2022-10-23T06:55:38;12.10;99.90
53152;DHT22;39234;53.158;6.322;2022-10-23T06:58:07;10.10;99.90
53152;DHT22;39234;53.158;6.322;2022-10-23T07:00:38;10.20;99.90
53152;DHT22;39234;53.158;6.322;2022-10-23T07:03:04;10.00;99.90
53152;DHT22;39234;53.158;6.322;2022-10-23T07:05:31;11.10;99.90
53152;DHT22;39234;53.158;6.322;2022-10-23T07:07:57;11.00;99.90
53152;DHT22;39234;53.158;6.322;2022-10-23T07:10:23;10.20;99.90
53152;DHT22;39234;53.158;6.322;2022-10-23T07:12:48;10.30;99.90
53152;DHT22;39234;53.158;6.322;2022-10-23T07:15:15;11.10;99.90
53152;DHT22;39234;53.158;6.322;2022-10-23T07:17:41;10.20;99.90
53152;DHT22;39234;53.158;6.322;2022-10-23T07:20:07;11.20;99.90
53152;DHT22;39234;53.158;6.322;2022-10-23T07:22:32;10.10;99.90
53152;DHT22;39234;53.158;6.322;2022-10-23T07:24:58;10.40;99.90
53152;DHT22;39234;53.158;6.322;2022-10-23T07:27:24;10.40;99.90
53152;DHT22;39234;53.158;6.322;2022-10-23T07:29:50;10.40;99.90
53152;DHT22;39234;53.158;6.322;2022-10-23T07:32:16;10.50;99.90
53152;DHT22;39234;53.158;6.322;2022-10-23T07:34:43;12.60;99.90
53152;DHT22;39234;53.158;6.322;2022-10-23T07:37:08;10.50;99.90
53152;DHT22;39234;53.158;6.322;2022-10-23T07:39:34;10.50;99.90
53152;DHT22;39234;53.158;6.322;2022-10-23T07:42:00;10.50;99.90
53152;DHT22;39234;53.158;6.322;2022-10-23T07:44:25;10.70;99.90
53152;DHT22;39234;53.158;6.322;2022-10-23T07:46:51;10.70;99.90
53152;DHT22;39234;53.158;6.322;2022-10-23T07:49:17;12.80;99.90
53152;DHT22;39234;53.158;6.322;2022-10-23T07:51:43;10.70;99.90
53152;DHT22;39234;53.158;6.322;2022-10-23T07:54:11;11.40;99.90
53152;DHT22;39234;53.158;6.322;2022-10-23T07:56:37;10.90;99.90
53152;DHT22;39234;53.158;6.322;2022-10-23T07:59:03;10.90;99.90
53152;DHT22;39234;53.158;6.322;2022-10-23T08:01:34;10.90;99.90
53152;DHT22;39234;53.158;6.322;2022-10-23T08:04:01;10.90;99.90
53152;DHT22;39234;53.158;6.322;2022-10-23T08:06:27;11.00;99.90
53152;DHT22;39234;53.158;6.322;2022-10-23T08:08:53;11.00;99.90
53152;DHT22;39234;53.158;6.322;2022-10-23T08:11:21;11.10;99.90
53152;DHT22;39234;53.158;6.322;2022-10-23T08:13:55;10.90;99.90
53152;DHT22;39234;53.158;6.322;2022-10-23T08:16:22;11.10;99.90
53152;DHT22;39234;53.158;6.322;2022-10-23T08:18:49;11.20;99.90
53152;DHT22;39234;53.158;6.322;2022-10-23T08:21:15;11.20;99.90
53152;DHT22;39234;53.158;6.322;2022-10-23T08:23:41;11.20;99.90
53152;DHT22;39234;53.158;6.322;2022-10-23T08:26:08;11.30;99.90
53152;DHT22;39234;53.158;6.322;2022-10-23T08:28:34;11.30;99.90
53152;DHT22;39234;53.158;6.322;2022-10-23T08:31:09;11.30;99.90
53152;DHT22;39234;53.158;6.322;2022-10-23T08:33:36;11.40;99.90
53152;DHT22;39234;53.158;6.322;2022-10-23T08:36:02;11.50;99.90
53152;DHT22;39234;53.158;6.322;2022-10-23T08:38:28;11.60;99.90
53152;DHT22;39234;53.158;6.322;2022-10-23T08:40:54;11.60;99.90
53152;DHT22;39234;53.158;6.322;2022-10-23T08:43:27;12.80;99.90
53152;DHT22;39234;53.158;6.322;2022-10-23T08:45:57;11.90;99.90
53152;DHT22;39234;53.158;6.322;2022-10-23T08:48:32;11.70;99.90
53152;DHT22;39234;53.158;6.322;2022-10-23T08:51:33;12.10;99.90
53152;DHT22;39234;53.158;6.322;2022-10-23T08:54:10;12.00;99.90
53152;DHT22;39234;53.158;6.322;2022-10-23T08:56:39;12.00;99.90
53152;DHT22;39234;53.158;6.322;2022-10-23T08:59:14;12.30;99.90
53152;DHT22;39234;53.158;6.322;2022-10-23T09:02:15;12.20;99.90
53152;DHT22;39234;53.158;6.322;2022-10-23T09:04:45;12.50;99.90
53152;DHT22;39234;53.158;6.322;2022-10-23T09:07:46;12.40;99.90
53152;DHT22;39234;53.158;6.322;2022-10-23T09:10:36;12.50;99.90
53152;DHT22;39234;53.158;6.322;2022-10-23T09:18:24;12.80;99.90
53152;DHT22;39234;53.158;6.322;2022-10-23T09:20:50;12.70;99.90
53152;DHT22;39234;53.158;6.322;2022-10-23T09:23:23;13.00;99.90
53152;DHT22;39234;53.158;6.322;2022-10-23T09:25:50;13.10;99.90
53152;DHT22;39234;53.158;6.322;2022-10-23T09:28:25;13.20;99.90
53152;DHT22;39234;53.158;6.322;2022-10-23T09:30:52;13.20;99.90
53152;DHT22;39234;53.158;6.322;2022-10-23T09:33:22;15.50;99.90
53152;DHT22;39234;53.158;6.322;2022-10-23T09:41:23;13.50;99.90
53152;DHT22;39234;53.158;6.322;2022-10-23T09:46:59;13.50;99.90
53152;DHT22;39234;53.158;6.322;2022-10-23T09:49:27;13.80;99.90
53152;DHT22;39234;53.158;6.322;2022-10-23T09:54:43;13.70;99.90
53152;DHT22;39234;53.158;6.322;2022-10-23T09:59:53;12.40;99.90
53152;DHT22;39234;53.158;6.322;2022-10-23T10:02:34;14.00;99.90
53152;DHT22;39234;53.158;6.322;2022-10-23T10:08:04;14.20;99.90
53152;DHT22;39234;53.158;6.322;2022-10-23T10:10:38;14.10;99.90
53152;DHT22;39234;53.158;6.322;2022-10-23T10:15:56;14.30;99.90
53152;DHT22;39234;53.158;6.322;2022-10-23T10:18:33;14.30;99.90
53152;DHT22;39234;53.158;6.322;2022-10-23T10:21:07;14.50;99.90
53152;DHT22;39234;53.158;6.322;2022-10-23T10:23:58;14.40;99.90
53152;DHT22;39234;53.158;6.322;2022-10-23T10:26:51;14.60;99.90
53152;DHT22;39234;53.158;6.322;2022-10-23T10:29:43;14.60;99.90
53152;DHT22;39234;53.158;6.322;2022-10-23T10:48:50;15.10;99.90
53152;DHT22;39234;53.158;6.322;2022-10-23T10:56:40;15.20;99.90
53152;DHT22;39234;53.158;6.322;2022-10-23T10:59:33;15.40;99.90
53152;DHT22;39234;53.158;6.322;2022-10-23T11:07:40;15.20;99.90
53152;DHT22;39234;53.158;6.322;2022-10-23T11:10:15;15.20;99.90
53152;DHT22;39234;53.158;6.322;2022-10-23T11:12:43;15.40;99.90
53152;DHT22;39234;53.158;6.322;2022-10-23T11:15:15;15.30;99.90
53152;DHT22;39234;53.158;6.322;2022-10-23T11:17:43;15.40;99.90
53152;DHT22;39234;53.158;6.322;2022-10-23T11:23:25;15.30;99.90
53152;DHT22;39234;53.158;6.322;2022-10-23T11:34:38;16.90;99.90
53152;DHT22;39234;53.158;6.322;2022-10-23T11:37:05;15.50;99.90
53152;DHT22;39234;53.158;6.322;2022-10-23T11:39:35;15.50;99.90
53152;DHT22;39234;53.158;6.322;2022-10-23T11:44:46;15.40;99.90
53152;DHT22;39234;53.158;6.322;2022-10-23T11:47:36;15.50;99.90
53152;DHT22;39234;53.158;6.322;2022-10-23T11:52:35;15.40;99.90
53152;DHT22;39234;53.158;6.322;2022-10-23T11:55:21;15.40;99.90
53152;DHT22;39234;53.158;6.322;2022-10-23T12:00:30;15.60;99.90
53152;DHT22;39234;53.158;6.322;2022-10-23T12:02:57;15.40;99.90
53152;DHT22;39234;53.158;6.322;2022-10-23T12:05:34;15.40;99.90
53152;DHT22;39234;53.158;6.322;2022-10-23T12:08:04;15.40;99.90
53152;DHT22;39234;53.158;6.322;2022-10-23T12:10:34;15.50;99.90
53152;DHT22;39234;53.158;6.322;2022-10-23T12:16:01;15.40;99.90
53152;DHT22;39234;53.158;6.322;2022-10-23T12:18:27;15.40;99.90
53152;DHT22;39234;53.158;6.322;2022-10-23T12:20:59;15.50;99.90
53152;DHT22;39234;53.158;6.322;2022-10-23T12:26:21;15.40;99.90
53152;DHT22;39234;53.158;6.322;2022-10-23T12:41:53;15.70;99.90
53152;DHT22;39234;53.158;6.322;2022-10-23T12:44:19;15.50;99.90
53152;DHT22;39234;53.158;6.322;2022-10-23T12:46:47;15.60;99.90
53152;DHT22;39234;53.158;6.322;2022-10-23T12:49:15;15.70;99.90
53152;DHT22;39234;53.158;6.322;2022-10-23T12:51:41;15.60;99.90
53152;DHT22;39234;53.158;6.322;2022-10-23T12:54:18;15.30;99.90
53152;DHT22;39234;53.158;6.322;2022-10-23T12:56:44;15.60;99.90
53152;DHT22;39234;53.158;6.322;2022-10-23T12:59:26;15.70;99.90
53152;DHT22;39234;53.158;6.322;2022-10-23T13:01:53;15.60;99.90
53152;DHT22;39234;53.158;6.322;2022-10-23T13:06:49;15.60;99.90
53152;DHT22;39234;53.158;6.322;2022-10-23T13:09:39;15.50;99.90
53152;DHT22;39234;53.158;6.322;2022-10-23T13:12:07;15.40;99.90
53152;DHT22;39234;53.158;6.322;2022-10-23T13:15:00;15.60;99.90
53152;DHT22;39234;53.158;6.322;2022-10-23T13:20:25;15.40;99.90
53152;DHT22;39234;53.158;6.322;2022-10-23T13:23:16;15.50;99.90
53152;DHT22;39234;53.158;6.322;2022-10-23T13:25:50;15.40;99.90
53152;DHT22;39234;53.158;6.322;2022-10-23T13:31:00;15.70;99.90
53152;DHT22;39234;53.158;6.322;2022-10-23T13:33:32;15.30;99.90
53152;DHT22;39234;53.158;6.322;2022-10-23T13:41:18;15.60;99.90
53152;DHT22;39234;53.158;6.322;2022-10-23T13:43:45;15.80;99.90
53152;DHT22;39234;53.158;6.322;2022-10-23T13:46:19;15.40;99.90
53152;DHT22;39234;53.158;6.322;2022-10-23T13:48:46;16.00;99.90
53152;DHT22;39234;53.158;6.322;2022-10-23T13:51:17;16.10;99.90
53152;DHT22;39234;53.158;6.322;2022-10-23T13:53:44;15.50;99.90
53152;DHT22;39234;53.158;6.322;2022-10-23T13:56:11;15.60;99.90
53152;DHT22;39234;53.158;6.322;2022-10-23T13:58:37;15.40;99.90
53152;DHT22;39234;53.158;6.322;2022-10-23T14:01:04;15.70;99.90
53152;DHT22;39234;53.158;6.322;2022-10-23T14:03:29;15.80;99.90
53152;DHT22;39234;53.158;6.322;2022-10-23T14:05:55;15.40;99.90
53152;DHT22;39234;53.158;6.322;2022-10-23T14:08:21;15.50;99.90
53152;DHT22;39234;53.158;6.322;2022-10-23T14:10:47;15.50;99.90
53152;DHT22;39234;53.158;6.322;2022-10-23T14:13:12;15.50;99.90
53152;DHT22;39234;53.158;6.322;2022-10-23T14:15:38;15.50;99.90
53152;DHT22;39234;53.158;6.322;2022-10-23T14:18:04;15.40;99.90
53152;DHT22;39234;53.158;6.322;2022-10-23T14:20:30;15.60;99.90
53152;DHT22;39234;53.158;6.322;2022-10-23T14:22:55;15.50;99.90
53152;DHT22;39234;53.158;6.322;2022-10-23T14:25:21;15.70;99.90
53152;DHT22;39234;53.158;6.322;2022-10-23T14:27:47;15.50;99.90
53152;DHT22;39234;53.158;6.322;2022-10-23T14:30:13;15.40;99.90
53152;DHT22;39234;53.158;6.322;2022-10-23T14:32:39;15.60;99.90
53152;DHT22;39234;53.158;6.322;2022-10-23T14:35:05;15.50;99.90
53152;DHT22;39234;53.158;6.322;2022-10-23T14:37:32;15.50;99.90
53152;DHT22;39234;53.158;6.322;2022-10-23T14:39:59;15.50;99.90
53152;DHT22;39234;53.158;6.322;2022-10-23T14:42:25;15.60;99.90
53152;DHT22;39234;53.158;6.322;2022-10-23T14:44:51;15.40;99.90
53152;DHT22;39234;53.158;6.322;2022-10-23T14:47:17;15.40;99.90
53152;DHT22;39234;53.158;6.322;2022-10-23T14:49:51;15.50;99.90
53152;DHT22;39234;53.158;6.322;2022-10-23T14:52:17;15.30;99.90
53152;DHT22;39234;53.158;6.322;2022-10-23T14:54:43;15.50;99.90
53152;DHT22;39234;53.158;6.322;2022-10-23T14:57:09;15.60;99.90
53152;DHT22;39234;53.158;6.322;2022-10-23T14:59:36;15.30;99.90
53152;DHT22;39234;53.158;6.322;2022-10-23T15:02:02;15.60;99.90
53152;DHT22;39234;53.158;6.322;2022-10-23T15:04:27;16.40;99.90
53152;DHT22;39234;53.158;6.322;2022-10-23T15:06:53;15.50;99.90
53152;DHT22;39234;53.158;6.322;2022-10-23T15:09:19;15.40;99.90
53152;DHT22;39234;53.158;6.322;2022-10-23T15:11:45;15.50;99.90
53152;DHT22;39234;53.158;6.322;2022-10-23T15:14:11;15.60;99.90
53152;DHT22;39234;53.158;6.322;2022-10-23T15:16:38;15.60;99.90
53152;DHT22;39234;53.158;6.322;2022-10-23T15:19:09;15.40;99.90
53152;DHT22;39234;53.158;6.322;2022-10-23T15:21:35;15.60;99.90
53152;DHT22;39234;53.158;6.322;2022-10-23T15:24:02;15.70;99.90
53152;DHT22;39234;53.158;6.322;2022-10-23T15:26:27;15.60;99.90
53152;DHT22;39234;53.158;6.322;2022-10-23T15:28:58;15.70;99.90
53152;DHT22;39234;53.158;6.322;2022-10-23T15:34:02;15.60;99.90
53152;DHT22;39234;53.158;6.322;2022-10-23T15:36:29;15.50;99.90
53152;DHT22;39234;53.158;6.322;2022-10-23T15:38:55;15.60;99.90
53152;DHT22;39234;53.158;6.322;2022-10-23T15:41:26;15.70;99.90
53152;DHT22;39234;53.158;6.322;2022-10-23T15:43:52;15.60;99.90
53152;DHT22;39234;53.158;6.322;2022-10-23T15:46:18;15.80;99.90
53152;DHT22;39234;53.158;6.322;2022-10-23T15:48:43;15.50;99.90
53152;DHT22;39234;53.158;6.322;2022-10-23T15:51:09;15.60;99.90
53152;DHT22;39234;53.158;6.322;2022-10-23T15:53:35;15.70;99.90
53152;DHT22;39234;53.158;6.322;2022-10-23T15:56:00;15.50;99.90
53152;DHT22;39234;53.158;6.322;2022-10-23T15:58:26;15.70;99.90
53152;DHT22;39234;53.158;6.322;2022-10-23T16:00:52;15.50;99.90
53152;DHT22;39234;53.158;6.322;2022-10-23T16:03:17;15.50;99.90
53152;DHT22;39234;53.158;6.322;2022-10-23T16:05:43;15.30;99.90
53152;DHT22;39234;53.158;6.322;2022-10-23T16:08:09;15.40;99.90
53152;DHT22;39234;53.158;6.322;2022-10-23T16:10:39;15.30;99.90
53152;DHT22;39234;53.158;6.322;2022-10-23T16:13:05;15.40;99.90
53152;DHT22;39234;53.158;6.322;2022-10-23T16:15:34;15.30;99.90
53152;DHT22;39234;53.158;6.322;2022-10-23T16:18:00;15.20;99.90
53152;DHT22;39234;53.158;6.322;2022-10-23T16:20:26;16.50;99.90
53152;DHT22;39234;53.158;6.322;2022-10-23T16:22:51;15.30;99.90
53152;DHT22;39234;53.158;6.322;2022-10-23T16:25:17;15.20;99.90
53152;DHT22;39234;53.158;6.322;2022-10-23T16:27:43;15.20;99.90
53152;DHT22;39234;53.158;6.322;2022-10-23T16:30:09;15.10;99.90
53152;DHT22;39234;53.158;6.322;2022-10-23T16:32:39;15.20;99.90
53152;DHT22;39234;53.158;6.322;2022-10-23T16:35:05;15.00;99.90
53152;DHT22;39234;53.158;6.322;2022-10-23T16:37:31;14.90;99.90
53152;DHT22;39234;53.158;6.322;2022-10-23T16:39:58;15.10;99.90
53152;DHT22;39234;53.158;6.322;2022-10-23T16:42:24;15.10;99.90
53152;DHT22;39234;53.158;6.322;2022-10-23T16:44:50;14.90;99.90
53152;DHT22;39234;53.158;6.322;2022-10-23T16:47:16;15.00;99.90
53152;DHT22;39234;53.158;6.322;2022-10-23T16:49:42;14.90;99.90
53152;DHT22;39234;53.158;6.322;2022-10-23T16:52:08;15.00;99.90
53152;DHT22;39234;53.158;6.322;2022-10-23T16:54:34;15.00;99.90
53152;DHT22;39234;53.158;6.322;2022-10-23T16:56:59;14.90;99.90
53152;DHT22;39234;53.158;6.322;2022-10-23T16:59:25;15.00;99.90
53152;DHT22;39234;53.158;6.322;2022-10-23T17:01:51;14.80;99.90
53152;DHT22;39234;53.158;6.322;2022-10-23T17:04:17;14.80;99.90
53152;DHT22;39234;53.158;6.322;2022-10-23T17:06:43;14.90;99.90
53152;DHT22;39234;53.158;6.322;2022-10-23T17:09:09;14.80;99.90
53152;DHT22;39234;53.158;6.322;2022-10-23T17:11:37;14.60;99.90
53152;DHT22;39234;53.158;6.322;2022-10-23T17:14:05;14.70;99.90
53152;DHT22;39234;53.158;6.322;2022-10-23T17:16:46;14.50;99.90
53152;DHT22;39234;53.158;6.322;2022-10-23T17:19:14;14.90;99.90
53152;DHT22;39234;53.158;6.322;2022-10-23T17:21:41;14.70;99.90
53152;DHT22;39234;53.158;6.322;2022-10-23T17:24:07;14.70;99.90
53152;DHT22;39234;53.158;6.322;2022-10-23T17:26:34;14.70;99.90
53152;DHT22;39234;53.158;6.322;2022-10-23T17:29:01;15.10;99.90
53152;DHT22;39234;53.158;6.322;2022-10-23T17:31:31;14.50;99.90
53152;DHT22;39234;53.158;6.322;2022-10-23T17:33:59;14.80;99.90
53152;DHT22;39234;53.158;6.322;2022-10-23T17:36:29;14.60;99.90
53152;DHT22;39234;53.158;6.322;2022-10-23T17:38:55;14.60;99.90
53152;DHT22;39234;53.158;6.322;2022-10-23T17:41:22;14.70;99.90
53152;DHT22;39234;53.158;6.322;2022-10-23T17:43:49;14.60;99.90
53152;DHT22;39234;53.158;6.322;2022-10-23T17:46:17;14.60;99.90
53152;DHT22;39234;53.158;6.322;2022-10-23T17:48:43;14.70;99.90
53152;DHT22;39234;53.158;6.322;2022-10-23T17:51:20;14.50;99.90
53152;DHT22;39234;53.158;6.322;2022-10-23T17:53:50;14.70;99.90
53152;DHT22;39234;53.158;6.322;2022-10-23T17:56:18;14.60;99.90
53152;DHT22;39234;53.158;6.322;2022-10-23T17:58:45;14.70;99.90
53152;DHT22;39234;53.158;6.322;2022-10-23T18:01:13;14.70;99.90
53152;DHT22;39234;53.158;6.322;2022-10-23T18:03:39;14.60;99.90
53152;DHT22;39234;53.158;6.322;2022-10-23T18:06:12;14.70;99.90
53152;DHT22;39234;53.158;6.322;2022-10-23T18:08:40;14.50;99.90